Main page
METAR-TAF:

METAR-TAF

Airports :

Ulan Bator, Mongolia

Chinggis Khaan International Airport

latitude: 47-55N, longitude: 106-52E, elevation: 1306 m

Current weather observation

The report was made 13 minutes ago, at 19:00 UTC
Wind 2 kt from variable directions
Temperature 1°C
Humidity 59%
Pressure 1023 hPa
Visibility 10 km or more
no clouds below 1500 m and no cumulonimbus

METAR: ZMUB 231900Z VRB01MPS CAVOK 01/M06 Q1023 NOSIG RMK QFE659.6 60

Time: 04:13 (19:13 UTC)

Forecast

The report was made 2 hours and 33 minutes ago, at 16:40 UTC
Forecast valid from 23 at 18 UTC to 24 at 24 UTC
Wind 4 kt from variable directions
Visibility 10 km or more
no clouds below 1500 m and no cumulonimbus
Becoming
from 24 at 02 UTC to 24 at 04 UTC
Wind 12 kt from the Southwest
Scattered clouds at a height of 3300 ft
Becoming
from 24 at 11 UTC to 24 at 13 UTC
Wind 4 kt from variable directions

TAF: ZMUB 231640Z 2318/2424 VRB02MPS CAVOK TNM02/2322Z TX20/2407Z BECMG 2402/2404 23006MPS SCT033 BECMG 2411/2413 VRB02MPS

Weather observations and forecasts of more than 4000 airports (METAR and TAF reports).

The available stations are represented by yellow and red dots on the map.

Hover mouse over dot to see the name of the station.

Then click to see weather observations and forecasts.

To change the map : click on the green buttons with a black cross to zoom in, on the green button with a dash to zoom out, or on the green arrows for adjacent maps.


METAR-TAF: